sensor_id;sensor_type;location;lat;lon;timestamp;temperature;humidity
57709;SHT35;42558;52.388;13.390;2022-07-29T00:02:26;16.04;64.05
57709;SHT35;42558;52.388;13.390;2022-07-29T00:04:54;16.03;63.90
57709;SHT35;42558;52.388;13.390;2022-07-29T00:07:21;16.00;63.93
57709;SHT35;42558;52.388;13.390;2022-07-29T00:09:48;16.01;63.82
57709;SHT35;42558;52.388;13.390;2022-07-29T00:12:21;16.00;64.23
57709;SHT35;42558;52.388;13.390;2022-07-29T00:14:55;15.97;64.25
57709;SHT35;42558;52.388;13.390;2022-07-29T00:17:23;15.94;64.52
57709;SHT35;42558;52.388;13.390;2022-07-29T00:19:50;15.94;64.32
57709;SHT35;42558;52.388;13.390;2022-07-29T00:22:18;15.93;64.18
57709;SHT35;42558;52.388;13.390;2022-07-29T00:24:49;15.89;64.49
57709;SHT35;42558;52.388;13.390;2022-07-29T00:27:16;15.85;64.64
57709;SHT35;42558;52.388;13.390;2022-07-29T00:29:44;15.80;64.81
57709;SHT35;42558;52.388;13.390;2022-07-29T00:32:11;15.79;65.01
57709;SHT35;42558;52.388;13.390;2022-07-29T00:34:38;15.79;64.95
57709;SHT35;42558;52.388;13.390;2022-07-29T00:37:24;15.80;64.87
57709;SHT35;42558;52.388;13.390;2022-07-29T00:39:51;15.79;65.26
57709;SHT35;42558;52.388;13.390;2022-07-29T00:42:18;15.75;65.19
57709;SHT35;42558;52.388;13.390;2022-07-29T00:44:46;15.72;65.28
57709;SHT35;42558;52.388;13.390;2022-07-29T00:47:13;15.74;65.19
57709;SHT35;42558;52.388;13.390;2022-07-29T00:49:41;15.74;65.26
57709;SHT35;42558;52.388;13.390;2022-07-29T00:52:10;15.69;65.48
57709;SHT35;42558;52.388;13.390;2022-07-29T00:54:42;15.62;65.79
57709;SHT35;42558;52.388;13.390;2022-07-29T00:57:10;15.55;66.06
57709;SHT35;42558;52.388;13.390;2022-07-29T00:59:38;15.50;66.43
57709;SHT35;42558;52.388;13.390;2022-07-29T01:02:06;15.49;66.37
57709;SHT35;42558;52.388;13.390;2022-07-29T01:04:33;15.48;66.52
57709;SHT35;42558;52.388;13.390;2022-07-29T01:07:00;15.49;66.50
57709;SHT35;42558;52.388;13.390;2022-07-29T01:09:29;15.47;66.77
57709;SHT35;42558;52.388;13.390;2022-07-29T01:12:19;15.43;66.74
57709;SHT35;42558;52.388;13.390;2022-07-29T01:14:54;15.42;66.76
57709;SHT35;42558;52.388;13.390;2022-07-29T01:17:32;15.44;66.77
57709;SHT35;42558;52.388;13.390;2022-07-29T01:23:40;15.36;67.31
57709;SHT35;42558;52.388;13.390;2022-07-29T01:26:52;15.28;67.66
57709;SHT35;42558;52.388;13.390;2022-07-29T01:29:32;15.26;67.90
57709;SHT35;42558;52.388;13.390;2022-07-29T01:32:19;15.24;67.83
57709;SHT35;42558;52.388;13.390;2022-07-29T01:34:56;15.25;67.82
57709;SHT35;42558;52.388;13.390;2022-07-29T01:37:29;15.26;67.79
57709;SHT35;42558;52.388;13.390;2022-07-29T01:40:20;15.23;68.01
57709;SHT35;42558;52.388;13.390;2022-07-29T01:42:54;15.21;68.10
57709;SHT35;42558;52.388;13.390;2022-07-29T01:45:28;15.19;68.10
57709;SHT35;42558;52.388;13.390;2022-07-29T01:48:10;15.19;68.24
57709;SHT35;42558;52.388;13.390;2022-07-29T01:53:50;15.16;68.46
57709;SHT35;42558;52.388;13.390;2022-07-29T01:56:27;15.15;68.49
57709;SHT35;42558;52.388;13.390;2022-07-29T01:59:00;15.11;68.72
57709;SHT35;42558;52.388;13.390;2022-07-29T02:01:31;15.08;68.88
57709;SHT35;42558;52.388;13.390;2022-07-29T02:04:04;15.06;69.06
57709;SHT35;42558;52.388;13.390;2022-07-29T02:06:52;15.03;69.08
57709;SHT35;42558;52.388;13.390;2022-07-29T02:09:25;15.00;69.13
57709;SHT35;42558;52.388;13.390;2022-07-29T02:11:53;14.98;69.25
57709;SHT35;42558;52.388;13.390;2022-07-29T02:14:23;14.95;69.40
57709;SHT35;42558;52.388;13.390;2022-07-29T02:16:54;14.94;69.43
57709;SHT35;42558;52.388;13.390;2022-07-29T02:19:27;14.95;69.53
57709;SHT35;42558;52.388;13.390;2022-07-29T02:21:57;14.92;69.80
57709;SHT35;42558;52.388;13.390;2022-07-29T02:24:28;14.89;69.78
57709;SHT35;42558;52.388;13.390;2022-07-29T02:26:57;14.91;69.64
57709;SHT35;42558;52.388;13.390;2022-07-29T02:29:28;14.91;69.75
57709;SHT35;42558;52.388;13.390;2022-07-29T02:31:58;14.91;69.94
57709;SHT35;42558;52.388;13.390;2022-07-29T02:34:29;14.88;70.21
57709;SHT35;42558;52.388;13.390;2022-07-29T02:36:58;14.86;70.02
57709;SHT35;42558;52.388;13.390;2022-07-29T02:39:26;14.85;70.14
57709;SHT35;42558;52.388;13.390;2022-07-29T02:41:57;14.86;69.80
57709;SHT35;42558;52.388;13.390;2022-07-29T02:44:30;14.90;69.71
57709;SHT35;42558;52.388;13.390;2022-07-29T02:47:14;14.88;69.82
57709;SHT35;42558;52.388;13.390;2022-07-29T02:49:57;14.83;69.96
57709;SHT35;42558;52.388;13.390;2022-07-29T02:53:17;14.84;70.16
57709;SHT35;42558;52.388;13.390;2022-07-29T02:55:40;14.81;70.32
57709;SHT35;42558;52.388;13.390;2022-07-29T03:01:01;14.73;70.69
57709;SHT35;42558;52.388;13.390;2022-07-29T03:03:47;14.77;70.23
57709;SHT35;42558;52.388;13.390;2022-07-29T03:06:18;14.78;70.44
57709;SHT35;42558;52.388;13.390;2022-07-29T03:09:03;14.76;70.80
57709;SHT35;42558;52.388;13.390;2022-07-29T03:11:38;14.73;70.83
57709;SHT35;42558;52.388;13.390;2022-07-29T03:14:17;14.71;70.89
57709;SHT35;42558;52.388;13.390;2022-07-29T03:16:46;14.70;70.93
57709;SHT35;42558;52.388;13.390;2022-07-29T03:19:15;14.73;70.80
57709;SHT35;42558;52.388;13.390;2022-07-29T03:21:44;14.78;70.73
57709;SHT35;42558;52.388;13.390;2022-07-29T03:24:23;14.76;70.75
57709;SHT35;42558;52.388;13.390;2022-07-29T03:26:56;14.77;70.75
57709;SHT35;42558;52.388;13.390;2022-07-29T03:29:24;14.76;70.93
57709;SHT35;42558;52.388;13.390;2022-07-29T03:32:00;14.75;71.00
57709;SHT35;42558;52.388;13.390;2022-07-29T03:34:33;14.72;71.32
57709;SHT35;42558;52.388;13.390;2022-07-29T03:37:03;14.69;71.12
57709;SHT35;42558;52.388;13.390;2022-07-29T03:39:33;14.72;71.05
57709;SHT35;42558;52.388;13.390;2022-07-29T03:42:06;14.72;71.03
57709;SHT35;42558;52.388;13.390;2022-07-29T03:44:41;14.71;71.22
57709;SHT35;42558;52.388;13.390;2022-07-29T03:47:11;14.72;71.21
57709;SHT35;42558;52.388;13.390;2022-07-29T03:49:41;14.77;71.06
57709;SHT35;42558;52.388;13.390;2022-07-29T03:52:11;14.80;70.88
57709;SHT35;42558;52.388;13.390;2022-07-29T03:54:37;14.83;70.96
57709;SHT35;42558;52.388;13.390;2022-07-29T03:57:05;14.84;70.94
57709;SHT35;42558;52.388;13.390;2022-07-29T03:59:34;14.87;71.10
57709;SHT35;42558;52.388;13.390;2022-07-29T04:02:04;14.90;71.02
57709;SHT35;42558;52.388;13.390;2022-07-29T04:04:35;14.91;71.06
57709;SHT35;42558;52.388;13.390;2022-07-29T04:07:02;14.91;70.93
57709;SHT35;42558;52.388;13.390;2022-07-29T04:09:31;14.93;70.94
57709;SHT35;42558;52.388;13.390;2022-07-29T04:11:58;14.92;70.94
57709;SHT35;42558;52.388;13.390;2022-07-29T04:14:29;14.93;70.99
57709;SHT35;42558;52.388;13.390;2022-07-29T04:16:59;14.95;71.04
57709;SHT35;42558;52.388;13.390;2022-07-29T04:19:28;14.98;70.92
57709;SHT35;42558;52.388;13.390;2022-07-29T04:21:55;15.04;71.00
57709;SHT35;42558;52.388;13.390;2022-07-29T04:24:23;15.05;71.34
57709;SHT35;42558;52.388;13.390;2022-07-29T04:26:50;15.04;71.24
57709;SHT35;42558;52.388;13.390;2022-07-29T04:29:17;15.07;71.16
57709;SHT35;42558;52.388;13.390;2022-07-29T04:31:44;15.10;71.12
57709;SHT35;42558;52.388;13.390;2022-07-29T04:34:11;15.13;71.07
57709;SHT35;42558;52.388;13.390;2022-07-29T04:36:39;15.18;71.08
57709;SHT35;42558;52.388;13.390;2022-07-29T04:39:06;15.19;70.99
57709;SHT35;42558;52.388;13.390;2022-07-29T04:41:32;15.23;71.14
57709;SHT35;42558;52.388;13.390;2022-07-29T04:44:00;15.23;71.13
57709;SHT35;42558;52.388;13.390;2022-07-29T04:46:37;15.27;71.15
57709;SHT35;42558;52.388;13.390;2022-07-29T04:49:05;15.33;70.76
57709;SHT35;42558;52.388;13.390;2022-07-29T04:51:32;15.38;70.79
57709;SHT35;42558;52.388;13.390;2022-07-29T04:53:58;15.42;70.51
57709;SHT35;42558;52.388;13.390;2022-07-29T04:56:26;15.46;70.41
57709;SHT35;42558;52.388;13.390;2022-07-29T04:58:53;15.49;70.25
57709;SHT35;42558;52.388;13.390;2022-07-29T05:01:20;15.55;70.20
57709;SHT35;42558;52.388;13.390;2022-07-29T05:03:47;15.57;69.86
57709;SHT35;42558;52.388;13.390;2022-07-29T05:06:14;15.64;70.15
57709;SHT35;42558;52.388;13.390;2022-07-29T05:08:41;15.70;69.91
57709;SHT35;42558;52.388;13.390;2022-07-29T05:11:08;15.72;69.72
57709;SHT35;42558;52.388;13.390;2022-07-29T05:13:38;15.76;69.51
57709;SHT35;42558;52.388;13.390;2022-07-29T05:16:12;15.82;69.51
57709;SHT35;42558;52.388;13.390;2022-07-29T05:18:40;15.82;69.18
57709;SHT35;42558;52.388;13.390;2022-07-29T05:21:08;15.84;69.42
57709;SHT35;42558;52.388;13.390;2022-07-29T05:23:35;15.89;69.35
57709;SHT35;42558;52.388;13.390;2022-07-29T05:26:02;15.92;69.16
57709;SHT35;42558;52.388;13.390;2022-07-29T05:28:29;15.90;68.84
57709;SHT35;42558;52.388;13.390;2022-07-29T05:31:01;15.94;69.05
57709;SHT35;42558;52.388;13.390;2022-07-29T05:33:28;15.97;68.85
57709;SHT35;42558;52.388;13.390;2022-07-29T05:36:03;16.03;68.65
57709;SHT35;42558;52.388;13.390;2022-07-29T05:38:36;16.07;68.50
57709;SHT35;42558;52.388;13.390;2022-07-29T05:41:06;16.12;68.15
57709;SHT35;42558;52.388;13.390;2022-07-29T05:43:33;16.22;68.32
57709;SHT35;42558;52.388;13.390;2022-07-29T05:46:00;16.31;68.23
57709;SHT35;42558;52.388;13.390;2022-07-29T05:48:27;16.43;68.27
57709;SHT35;42558;52.388;13.390;2022-07-29T05:50:54;16.55;67.51
57709;SHT35;42558;52.388;13.390;2022-07-29T05:53:21;16.68;66.86
57709;SHT35;42558;52.388;13.390;2022-07-29T05:55:48;16.84;66.76
57709;SHT35;42558;52.388;13.390;2022-07-29T05:58:17;16.99;66.33
57709;SHT35;42558;52.388;13.390;2022-07-29T06:00:44;17.04;65.41
57709;SHT35;42558;52.388;13.390;2022-07-29T06:03:11;17.18;65.09
57709;SHT35;42558;52.388;13.390;2022-07-29T06:05:38;17.44;65.57
57709;SHT35;42558;52.388;13.390;2022-07-29T06:08:05;17.53;64.22
57709;SHT35;42558;52.388;13.390;2022-07-29T06:10:36;17.49;63.95
57709;SHT35;42558;52.388;13.390;2022-07-29T06:13:04;17.47;63.90
57709;SHT35;42558;52.388;13.390;2022-07-29T06:15:31;17.62;63.93
57709;SHT35;42558;52.388;13.390;2022-07-29T06:17:58;17.88;63.54
57709;SHT35;42558;52.388;13.390;2022-07-29T06:20:28;18.32;63.92
57709;SHT35;42558;52.388;13.390;2022-07-29T06:22:57;18.78;61.45
57709;SHT35;42558;52.388;13.390;2022-07-29T06:25:24;18.96;61.50
57709;SHT35;42558;52.388;13.390;2022-07-29T06:27:52;18.85;60.52
57709;SHT35;42558;52.388;13.390;2022-07-29T06:30:18;18.69;60.08
57709;SHT35;42558;52.388;13.390;2022-07-29T06:32:45;18.62;60.93
57709;SHT35;42558;52.388;13.390;2022-07-29T06:35:13;18.57;60.96
57709;SHT35;42558;52.388;13.390;2022-07-29T06:38:02;18.67;60.86
57709;SHT35;42558;52.388;13.390;2022-07-29T06:40:49;18.44;60.63
57709;SHT35;42558;52.388;13.390;2022-07-29T06:43:34;18.47;61.46
57709;SHT35;42558;52.388;13.390;2022-07-29T06:46:20;18.59;60.97
57709;SHT35;42558;52.388;13.390;2022-07-29T06:48:49;18.50;60.14
57709;SHT35;42558;52.388;13.390;2022-07-29T06:51:17;18.34;60.47
57709;SHT35;42558;52.388;13.390;2022-07-29T06:53:49;18.44;61.08
57709;SHT35;42558;52.388;13.390;2022-07-29T06:56:26;18.60;60.84
57709;SHT35;42558;52.388;13.390;2022-07-29T06:58:52;18.69;60.01
57709;SHT35;42558;52.388;13.390;2022-07-29T07:01:19;18.59;60.06
57709;SHT35;42558;52.388;13.390;2022-07-29T07:03:47;18.77;60.68
57709;SHT35;42558;52.388;13.390;2022-07-29T07:06:13;18.87;60.12
57709;SHT35;42558;52.388;13.390;2022-07-29T07:08:40;19.01;59.84
57709;SHT35;42558;52.388;13.390;2022-07-29T07:11:08;19.17;59.93
57709;SHT35;42558;52.388;13.390;2022-07-29T07:13:35;19.29;59.09
57709;SHT35;42558;52.388;13.390;2022-07-29T07:16:02;19.36;59.02
57709;SHT35;42558;52.388;13.390;2022-07-29T07:18:30;19.54;59.60
57709;SHT35;42558;52.388;13.390;2022-07-29T07:20:57;19.78;58.75
57709;SHT35;42558;52.388;13.390;2022-07-29T07:23:24;19.93;57.43
57709;SHT35;42558;52.388;13.390;2022-07-29T07:25:51;20.00;57.70
57709;SHT35;42558;52.388;13.390;2022-07-29T07:28:18;20.45;57.33
57709;SHT35;42558;52.388;13.390;2022-07-29T07:30:50;20.60;55.54
57709;SHT35;42558;52.388;13.390;2022-07-29T07:33:18;20.30;55.99
57709;SHT35;42558;52.388;13.390;2022-07-29T07:35:46;20.43;56.70
57709;SHT35;42558;52.388;13.390;2022-07-29T07:38:13;20.36;55.91
57709;SHT35;42558;52.388;13.390;2022-07-29T07:40:40;20.70;55.26
57709;SHT35;42558;52.388;13.390;2022-07-29T07:43:08;21.34;55.74
57709;SHT35;42558;52.388;13.390;2022-07-29T07:45:34;22.11;53.58
57709;SHT35;42558;52.388;13.390;2022-07-29T07:48:04;22.39;51.94
57709;SHT35;42558;52.388;13.390;2022-07-29T07:50:31;22.66;51.76
57709;SHT35;42558;52.388;13.390;2022-07-29T07:52:58;22.38;50.63
57709;SHT35;42558;52.388;13.390;2022-07-29T07:55:27;22.34;52.17
57709;SHT35;42558;52.388;13.390;2022-07-29T07:58:14;22.29;50.38
57709;SHT35;42558;52.388;13.390;2022-07-29T08:00:41;21.82;51.92
57709;SHT35;42558;52.388;13.390;2022-07-29T08:03:08;21.38;52.25
57709;SHT35;42558;52.388;13.390;2022-07-29T08:05:42;21.56;53.26
57709;SHT35;42558;52.388;13.390;2022-07-29T08:08:10;22.07;53.99
57709;SHT35;42558;52.388;13.390;2022-07-29T08:10:37;22.33;51.88
57709;SHT35;42558;52.388;13.390;2022-07-29T08:13:19;22.49;51.52
57709;SHT35;42558;52.388;13.390;2022-07-29T08:15:48;22.46;50.54
57709;SHT35;42558;52.388;13.390;2022-07-29T08:18:27;22.89;49.69
57709;SHT35;42558;52.388;13.390;2022-07-29T08:20:57;23.15;48.65
57709;SHT35;42558;52.388;13.390;2022-07-29T08:23:25;23.44;48.09
57709;SHT35;42558;52.388;13.390;2022-07-29T08:26:12;23.38;48.28
57709;SHT35;42558;52.388;13.390;2022-07-29T08:28:41;23.11;47.89
57709;SHT35;42558;52.388;13.390;2022-07-29T08:31:15;22.79;48.35
57709;SHT35;42558;52.388;13.390;2022-07-29T08:33:44;22.42;48.62
57709;SHT35;42558;52.388;13.390;2022-07-29T08:36:11;22.36;49.44
57709;SHT35;42558;52.388;13.390;2022-07-29T08:38:39;22.42;49.21
57709;SHT35;42558;52.388;13.390;2022-07-29T08:41:06;22.50;49.67
57709;SHT35;42558;52.388;13.390;2022-07-29T08:43:33;22.62;50.26
57709;SHT35;42558;52.388;13.390;2022-07-29T08:46:03;22.49;49.41
57709;SHT35;42558;52.388;13.390;2022-07-29T08:48:31;22.51;48.97
57709;SHT35;42558;52.388;13.390;2022-07-29T08:50:59;22.48;49.57
57709;SHT35;42558;52.388;13.390;2022-07-29T08:53:29;22.61;49.62
57709;SHT35;42558;52.388;13.390;2022-07-29T08:55:58;22.79;50.40
57709;SHT35;42558;52.388;13.390;2022-07-29T08:58:26;22.77;49.05
57709;SHT35;42558;52.388;13.390;2022-07-29T09:01:03;22.81;48.26
57709;SHT35;42558;52.388;13.390;2022-07-29T09:03:33;22.94;47.29
57709;SHT35;42558;52.388;13.390;2022-07-29T09:06:03;23.38;48.31
57709;SHT35;42558;52.388;13.390;2022-07-29T09:08:32;23.80;45.74
57709;SHT35;42558;52.388;13.390;2022-07-29T09:11:02;24.08;45.41
57709;SHT35;42558;52.388;13.390;2022-07-29T09:13:31;23.94;45.38
57709;SHT35;42558;52.388;13.390;2022-07-29T09:15:58;24.25;45.63
57709;SHT35;42558;52.388;13.390;2022-07-29T09:18:38;24.62;45.89
57709;SHT35;42558;52.388;13.390;2022-07-29T09:21:15;24.86;44.66
57709;SHT35;42558;52.388;13.390;2022-07-29T09:26:40;25.97;42.78
57709;SHT35;42558;52.388;13.390;2022-07-29T09:29:12;25.82;41.69
57709;SHT35;42558;52.388;13.390;2022-07-29T09:31:49;26.00;41.37
57709;SHT35;42558;52.388;13.390;2022-07-29T09:34:24;25.75;40.24
57709;SHT35;42558;52.388;13.390;2022-07-29T09:36:54;24.99;40.52
57709;SHT35;42558;52.388;13.390;2022-07-29T09:39:30;25.03;41.84
57709;SHT35;42558;52.388;13.390;2022-07-29T09:41:59;25.15;40.70
57709;SHT35;42558;52.388;13.390;2022-07-29T09:44:44;25.07;39.62
57709;SHT35;42558;52.388;13.390;2022-07-29T09:47:15;25.01;39.56
57709;SHT35;42558;52.388;13.390;2022-07-29T09:49:52;25.00;39.61
57709;SHT35;42558;52.388;13.390;2022-07-29T09:52:26;25.23;40.26
57709;SHT35;42558;52.388;13.390;2022-07-29T09:55:06;25.37;38.97
57709;SHT35;42558;52.388;13.390;2022-07-29T09:57:39;25.52;38.60
57709;SHT35;42558;52.388;13.390;2022-07-29T10:00:07;25.94;38.81
57709;SHT35;42558;52.388;13.390;2022-07-29T10:02:42;26.09;37.86
57709;SHT35;42558;52.388;13.390;2022-07-29T10:05:21;26.11;37.76
57709;SHT35;42558;52.388;13.390;2022-07-29T10:08:02;25.81;38.04
57709;SHT35;42558;52.388;13.390;2022-07-29T10:10:33;25.90;38.02
57709;SHT35;42558;52.388;13.390;2022-07-29T10:13:05;25.46;37.38
57709;SHT35;42558;52.388;13.390;2022-07-29T10:15:42;25.40;38.35
57709;SHT35;42558;52.388;13.390;2022-07-29T10:18:13;25.42;38.14
57709;SHT35;42558;52.388;13.390;2022-07-29T10:20:43;25.51;39.24
57709;SHT35;42558;52.388;13.390;2022-07-29T10:23:10;25.23;37.96
57709;SHT35;42558;52.388;13.390;2022-07-29T10:25:38;25.28;38.49
57709;SHT35;42558;52.388;13.390;2022-07-29T10:28:11;25.18;38.70
57709;SHT35;42558;52.388;13.390;2022-07-29T10:30:42;25.18;37.57
57709;SHT35;42558;52.388;13.390;2022-07-29T10:33:21;25.18;38.03
57709;SHT35;42558;52.388;13.390;2022-07-29T10:42:20;26.26;38.20
57709;SHT35;42558;52.388;13.390;2022-07-29T10:45:00;26.30;37.39
57709;SHT35;42558;52.388;13.390;2022-07-29T10:47:30;26.39;38.17
57709;SHT35;42558;52.388;13.390;2022-07-29T10:50:01;26.42;37.68
57709;SHT35;42558;52.388;13.390;2022-07-29T10:55:38;26.32;37.94
57709;SHT35;42558;52.388;13.390;2022-07-29T10:58:16;26.43;38.28
57709;SHT35;42558;52.388;13.390;2022-07-29T11:00:50;26.62;37.74
57709;SHT35;42558;52.388;13.390;2022-07-29T11:06:15;27.03;38.70
57709;SHT35;42558;52.388;13.390;2022-07-29T11:08:43;27.08;38.12
57709;SHT35;42558;52.388;13.390;2022-07-29T11:13:48;27.40;38.60
57709;SHT35;42558;52.388;13.390;2022-07-29T11:16:22;27.47;38.21
57709;SHT35;42558;52.388;13.390;2022-07-29T11:21:55;26.97;39.18
57709;SHT35;42558;52.388;13.390;2022-07-29T11:29:39;27.09;39.90
57709;SHT35;42558;52.388;13.390;2022-07-29T11:32:36;27.24;39.27
57709;SHT35;42558;52.388;13.390;2022-07-29T11:38:23;27.43;39.59
57709;SHT35;42558;52.388;13.390;2022-07-29T11:43:58;27.50;39.29
57709;SHT35;42558;52.388;13.390;2022-07-29T11:49:27;26.87;39.80
57709;SHT35;42558;52.388;13.390;2022-07-29T11:51:58;27.05;39.76
57709;SHT35;42558;52.388;13.390;2022-07-29T11:54:30;26.82;40.35
57709;SHT35;42558;52.388;13.390;2022-07-29T11:57:20;26.60;41.04
57709;SHT35;42558;52.388;13.390;2022-07-29T11:59:47;26.81;41.24
57709;SHT35;42558;52.388;13.390;2022-07-29T12:02:16;27.22;41.05
57709;SHT35;42558;52.388;13.390;2022-07-29T12:05:03;27.01;40.71
57709;SHT35;42558;52.388;13.390;2022-07-29T12:07:36;26.61;41.07
57709;SHT35;42558;52.388;13.390;2022-07-29T12:10:10;26.36;41.54
57709;SHT35;42558;52.388;13.390;2022-07-29T12:12:55;26.31;41.04
57709;SHT35;42558;52.388;13.390;2022-07-29T12:15:22;26.75;40.21
57709;SHT35;42558;52.388;13.390;2022-07-29T12:18:19;26.94;39.21
57709;SHT35;42558;52.388;13.390;2022-07-29T12:20:56;27.23;38.93
57709;SHT35;42558;52.388;13.390;2022-07-29T12:23:32;27.44;38.80
57709;SHT35;42558;52.388;13.390;2022-07-29T12:26:03;27.33;38.43
57709;SHT35;42558;52.388;13.390;2022-07-29T12:28:36;27.43;39.04
57709;SHT35;42558;52.388;13.390;2022-07-29T12:31:05;27.42;38.59
57709;SHT35;42558;52.388;13.390;2022-07-29T12:33:39;27.34;38.96
57709;SHT35;42558;52.388;13.390;2022-07-29T12:36:06;27.31;39.57
57709;SHT35;42558;52.388;13.390;2022-07-29T12:38:43;27.24;39.63
57709;SHT35;42558;52.388;13.390;2022-07-29T12:41:10;26.97;39.69
57709;SHT35;42558;52.388;13.390;2022-07-29T12:43:45;26.98;40.23
57709;SHT35;42558;52.388;13.390;2022-07-29T12:46:19;27.43;40.47
57709;SHT35;42558;52.388;13.390;2022-07-29T12:48:51;27.39;39.83
57709;SHT35;42558;52.388;13.390;2022-07-29T12:54:09;27.65;40.05
57709;SHT35;42558;52.388;13.390;2022-07-29T12:56:40;27.28;39.76
57709;SHT35;42558;52.388;13.390;2022-07-29T12:59:17;27.33;40.65
57709;SHT35;42558;52.388;13.390;2022-07-29T13:01:47;27.34;40.27
57709;SHT35;42558;52.388;13.390;2022-07-29T13:04:27;27.48;40.72
57709;SHT35;42558;52.388;13.390;2022-07-29T13:06:58;27.42;39.86
57709;SHT35;42558;52.388;13.390;2022-07-29T13:09:45;27.27;40.19
57709;SHT35;42558;52.388;13.390;2022-07-29T13:12:13;27.45;41.61
57709;SHT35;42558;52.388;13.390;2022-07-29T13:14:45;27.89;40.41
57709;SHT35;42558;52.388;13.390;2022-07-29T13:17:15;28.06;39.03
57709;SHT35;42558;52.388;13.390;2022-07-29T13:22:18;27.80;39.30
57709;SHT35;42558;52.388;13.390;2022-07-29T13:24:56;27.64;38.86
57709;SHT35;42558;52.388;13.390;2022-07-29T13:27:29;27.32;38.95
57709;SHT35;42558;52.388;13.390;2022-07-29T13:29:58;27.41;38.87
57709;SHT35;42558;52.388;13.390;2022-07-29T13:32:28;27.53;38.97
57709;SHT35;42558;52.388;13.390;2022-07-29T13:34:56;27.72;39.11
57709;SHT35;42558;52.388;13.390;2022-07-29T13:37:31;28.05;39.90
57709;SHT35;42558;52.388;13.390;2022-07-29T13:40:02;27.98;37.94
57709;SHT35;42558;52.388;13.390;2022-07-29T13:42:31;27.81;39.47
57709;SHT35;42558;52.388;13.390;2022-07-29T13:44:59;27.86;38.42
57709;SHT35;42558;52.388;13.390;2022-07-29T13:47:27;27.91;38.05
57709;SHT35;42558;52.388;13.390;2022-07-29T13:49:59;27.72;37.83
57709;SHT35;42558;52.388;13.390;2022-07-29T13:52:27;27.92;38.30
57709;SHT35;42558;52.388;13.390;2022-07-29T13:54:55;27.81;37.38
57709;SHT35;42558;52.388;13.390;2022-07-29T13:57:22;27.88;37.31
57709;SHT35;42558;52.388;13.390;2022-07-29T13:59:49;27.97;37.56
57709;SHT35;42558;52.388;13.390;2022-07-29T14:02:20;28.20;38.20
57709;SHT35;42558;52.388;13.390;2022-07-29T14:04:52;28.25;37.05
57709;SHT35;42558;52.388;13.390;2022-07-29T14:07:21;28.04;37.16
57709;SHT35;42558;52.388;13.390;2022-07-29T14:09:48;28.21;36.60
57709;SHT35;42558;52.388;13.390;2022-07-29T14:12:16;28.33;37.64
57709;SHT35;42558;52.388;13.390;2022-07-29T14:14:44;28.07;36.76
57709;SHT35;42558;52.388;13.390;2022-07-29T14:17:12;27.87;36.42
57709;SHT35;42558;52.388;13.390;2022-07-29T14:19:40;27.86;36.42
57709;SHT35;42558;52.388;13.390;2022-07-29T14:22:08;27.96;36.91
57709;SHT35;42558;52.388;13.390;2022-07-29T14:24:36;28.08;36.78
57709;SHT35;42558;52.388;13.390;2022-07-29T14:27:04;28.12;36.33
57709;SHT35;42558;52.388;13.390;2022-07-29T14:29:33;28.17;36.20
57709;SHT35;42558;52.388;13.390;2022-07-29T14:32:04;28.49;37.03
57709;SHT35;42558;52.388;13.390;2022-07-29T14:34:36;28.76;35.97
57709;SHT35;42558;52.388;13.390;2022-07-29T14:37:04;28.77;35.24
57709;SHT35;42558;52.388;13.390;2022-07-29T14:39:33;28.38;35.29
57709;SHT35;42558;52.388;13.390;2022-07-29T14:42:09;28.33;35.84
57709;SHT35;42558;52.388;13.390;2022-07-29T14:44:40;28.93;35.98
57709;SHT35;42558;52.388;13.390;2022-07-29T14:47:08;28.73;34.83
57709;SHT35;42558;52.388;13.390;2022-07-29T14:49:35;28.32;35.45
57709;SHT35;42558;52.388;13.390;2022-07-29T14:52:03;28.81;35.51
57709;SHT35;42558;52.388;13.390;2022-07-29T14:54:30;29.17;34.59
57709;SHT35;42558;52.388;13.390;2022-07-29T14:56:57;29.03;34.32
57709;SHT35;42558;52.388;13.390;2022-07-29T14:59:24;28.85;35.43
57709;SHT35;42558;52.388;13.390;2022-07-29T15:01:52;29.25;34.91
57709;SHT35;42558;52.388;13.390;2022-07-29T15:04:20;29.18;35.39
57709;SHT35;42558;52.388;13.390;2022-07-29T15:06:47;29.26;34.67
57709;SHT35;42558;52.388;13.390;2022-07-29T15:09:14;29.22;35.31
57709;SHT35;42558;52.388;13.390;2022-07-29T15:11:41;29.30;34.83
57709;SHT35;42558;52.388;13.390;2022-07-29T15:14:08;29.08;34.47
57709;SHT35;42558;52.388;13.390;2022-07-29T15:16:36;29.03;34.39
57709;SHT35;42558;52.388;13.390;2022-07-29T15:19:09;29.24;34.52
57709;SHT35;42558;52.388;13.390;2022-07-29T15:21:37;29.38;34.22
57709;SHT35;42558;52.388;13.390;2022-07-29T15:24:15;28.84;33.66
57709;SHT35;42558;52.388;13.390;2022-07-29T15:26:45;29.06;35.33
57709;SHT35;42558;52.388;13.390;2022-07-29T15:29:13;29.15;33.43
57709;SHT35;42558;52.388;13.390;2022-07-29T15:31:41;29.40;34.65
57709;SHT35;42558;52.388;13.390;2022-07-29T15:34:09;29.92;34.55
57709;SHT35;42558;52.388;13.390;2022-07-29T15:36:35;29.67;33.41
57709;SHT35;42558;52.388;13.390;2022-07-29T15:39:19;29.24;33.71
57709;SHT35;42558;52.388;13.390;2022-07-29T15:41:48;29.07;34.81
57709;SHT35;42558;52.388;13.390;2022-07-29T15:44:16;28.90;34.99
57709;SHT35;42558;52.388;13.390;2022-07-29T15:46:44;28.51;36.00
57709;SHT35;42558;52.388;13.390;2022-07-29T15:49:29;28.82;35.26
57709;SHT35;42558;52.388;13.390;2022-07-29T15:52:14;28.57;35.56
57709;SHT35;42558;52.388;13.390;2022-07-29T15:54:51;28.90;35.27
57709;SHT35;42558;52.388;13.390;2022-07-29T15:57:21;29.09;34.24
57709;SHT35;42558;52.388;13.390;2022-07-29T15:59:50;28.68;33.71
57709;SHT35;42558;52.388;13.390;2022-07-29T16:02:17;28.61;34.29
57709;SHT35;42558;52.388;13.390;2022-07-29T16:04:44;29.14;34.26
57709;SHT35;42558;52.388;13.390;2022-07-29T16:07:11;29.77;34.41
57709;SHT35;42558;52.388;13.390;2022-07-29T16:09:40;29.68;33.01
57709;SHT35;42558;52.388;13.390;2022-07-29T16:12:08;29.44;33.90
57709;SHT35;42558;52.388;13.390;2022-07-29T16:14:41;29.28;32.43
57709;SHT35;42558;52.388;13.390;2022-07-29T16:17:10;29.05;33.74
57709;SHT35;42558;52.388;13.390;2022-07-29T16:19:40;28.78;34.49
57709;SHT35;42558;52.388;13.390;2022-07-29T16:22:11;28.34;35.26
57709;SHT35;42558;52.388;13.390;2022-07-29T16:24:39;28.53;36.10
57709;SHT35;42558;52.388;13.390;2022-07-29T16:27:06;28.78;35.87
57709;SHT35;42558;52.388;13.390;2022-07-29T16:29:33;28.51;35.45
57709;SHT35;42558;52.388;13.390;2022-07-29T16:32:02;28.51;36.03